Time;durP1;ratioP1;P1;durP2;ratioP2;P2;SDS_P1;SDS_P2;PMS_P1;PMS_P2;Temp;Humidity;BMP_temperature;BMP_pressure;BME280_temperature;BME280_humidity;BME280_pressure;Samples;Min_cycle;Max_cycle;Signal;HPM_P1;HPM_P2
2022/01/20 00:01:46;;;;;;;15.93;11.87;;;2.00;99.90;;;;;;5073335;28;20208;-74
2022/01/20 00:04:19;;;;;;;15.73;11.40;;;2.00;99.90;;;;;;5073938;28;20284;-73
2022/01/20 00:07:22;;;;;;;18.50;13.67;;;2.00;99.90;;;;;;5077416;28;20229;-74
2022/01/20 00:25:51;;;;;;;15.83;11.13;;;1.90;99.90;;;;;;5076889;28;20333;-73
2022/01/20 00:26:40;;;;;;;16.13;11.07;;;1.90;99.90;;;;;;5076493;28;20671;-73
2022/01/20 00:29:15;;;;;;;13.33;9.47;;;1.90;99.90;;;;;;5058751;28;20267;-73
2022/01/20 00:31:48;;;;;;;14.67;10.33;;;1.80;99.90;;;;;;5060244;28;20254;-73
2022/01/20 00:34:19;;;;;;;13.90;10.13;;;1.80;99.90;;;;;;5080596;28;20215;-73
2022/01/20 00:39:31;;;;;;;13.07;9.50;;;1.80;99.90;;;;;;5083294;28;20559;-73
2022/01/20 00:41:58;;;;;;;13.07;9.63;;;1.90;99.90;;;;;;5083387;28;20204;-73
2022/01/20 00:44:26;;;;;;;12.53;8.77;;;1.90;99.90;;;;;;5082753;28;20197;-72
2022/01/20 00:46:52;;;;;;;12.57;9.43;;;1.80;99.90;;;;;;5082032;28;20243;-72
2022/01/20 00:49:19;;;;;;;15.47;9.57;;;1.70;99.90;;;;;;5077084;28;20660;-72
2022/01/20 00:51:47;;;;;;;13.83;9.80;;;1.60;99.90;;;;;;5076247;28;20197;-71
2022/01/20 00:54:14;;;;;;;13.17;9.97;;;1.60;99.90;;;;;;5076675;28;20201;-71
2022/01/20 00:56:40;;;;;;;14.50;10.47;;;1.70;99.90;;;;;;5076225;28;20227;-71
2022/01/20 00:59:07;;;;;;;13.50;10.87;;;1.70;99.90;;;;;;5076028;28;20221;-71
2022/01/20 01:01:35;;;;;;;14.53;10.60;;;1.70;99.90;;;;;;5076053;28;20262;-71
2022/01/20 01:04:02;;;;;;;12.87;10.37;;;1.70;99.90;;;;;;5077213;28;20209;-71
2022/01/20 01:06:42;;;;;;;13.93;10.07;;;1.60;99.90;;;;;;5058710;28;20193;-71
2022/01/20 01:09:08;;;;;;;14.90;10.33;;;1.50;99.90;;;;;;5076360;28;20259;-71
2022/01/20 01:11:36;;;;;;;13.27;10.43;;;1.40;99.90;;;;;;5076025;28;20193;-71
2022/01/20 01:14:05;;;;;;;13.20;10.07;;;1.40;99.90;;;;;;5075699;28;20200;-71
2022/01/20 01:19:59;;;;;;;12.33;9.40;;;1.40;99.90;;;;;;5075807;28;20250;-71
2022/01/20 01:22:22;;;;;;;14.20;10.50;;;1.30;99.90;;;;;;5049682;28;20717;-71
2022/01/20 01:24:52;;;;;;;12.33;9.77;;;1.30;99.90;;;;;;5076411;28;20235;-71
2022/01/20 01:27:19;;;;;;;13.80;9.83;;;1.30;99.90;;;;;;5075992;28;20220;-71
2022/01/20 01:30:02;;;;;;;13.10;10.13;;;1.20;99.90;;;;;;5075833;28;20232;-72
2022/01/20 01:32:37;;;;;;;14.23;10.83;;;1.20;99.90;;;;;;5075819;28;20200;-70
2022/01/20 01:35:08;;;;;;;14.90;10.40;;;1.20;99.90;;;;;;5077312;28;20729;-70
2022/01/20 01:38:24;;;;;;;14.30;10.43;;;1.20;99.90;;;;;;5076967;28;20225;-70
2022/01/20 01:40:25;;;;;;;12.57;9.60;;;1.20;99.90;;;;;;5076862;28;20207;-70
2022/01/20 01:42:53;;;;;;;14.33;10.33;;;1.30;99.90;;;;;;5076271;28;20201;-70
2022/01/20 01:45:26;;;;;;;12.47;9.70;;;1.40;99.90;;;;;;5075631;28;20211;-71
2022/01/20 01:47:52;;;;;;;12.37;9.57;;;1.40;99.90;;;;;;5075226;28;20266;-70
2022/01/20 01:50:22;;;;;;;14.07;10.67;;;1.40;99.90;;;;;;5075418;28;20193;-70
2022/01/20 01:52:49;;;;;;;14.33;11.27;;;1.50;99.90;;;;;;5075666;28;20200;-70
2022/01/20 01:55:17;;;;;;;14.13;11.13;;;1.50;99.90;;;;;;5075156;28;20208;-70
2022/01/20 01:57:44;;;;;;;11.30;9.27;;;1.50;99.90;;;;;;5075090;28;20221;-71
2022/01/20 02:00:12;;;;;;;13.07;9.97;;;1.50;99.90;;;;;;5075453;28;20197;-70
2022/01/20 02:02:42;;;;;;;12.77;9.13;;;1.50;99.90;;;;;;5075147;28;20587;-70
2022/01/20 02:05:11;;;;;;;11.73;8.80;;;1.40;99.90;;;;;;5075361;28;20259;-70
2022/01/20 02:08:10;;;;;;;12.37;9.37;;;1.40;99.90;;;;;;5075137;28;20204;-70
2022/01/20 02:18:51;;;;;;;12.80;10.33;;;1.40;99.90;;;;;;5075573;28;20255;-70
2022/01/20 02:21:19;;;;;;;11.20;9.50;;;1.40;99.90;;;;;;5075095;28;20204;-71
2022/01/20 02:23:47;;;;;;;12.97;10.20;;;1.40;99.90;;;;;;5075242;28;20641;-70
2022/01/20 02:26:14;;;;;;;13.53;10.83;;;1.40;99.90;;;;;;5074971;28;20205;-71
2022/01/20 02:28:42;;;;;;;15.63;11.17;;;1.40;99.90;;;;;;5074470;28;20197;-70
2022/01/20 02:31:09;;;;;;;14.10;11.03;;;1.40;99.90;;;;;;5075123;28;20205;-71
2022/01/20 02:33:36;;;;;;;14.43;11.83;;;1.40;99.90;;;;;;5076699;28;20247;-70
2022/01/20 02:36:07;;;;;;;13.00;10.57;;;1.40;99.90;;;;;;5074706;28;20653;-70
2022/01/20 02:38:39;;;;;;;13.13;10.83;;;1.40;99.90;;;;;;5075062;28;20218;-70
2022/01/20 02:46:37;;;;;;;14.07;11.20;;;1.30;99.90;;;;;;5077697;28;20196;-71
2022/01/20 02:49:04;;;;;;;14.53;11.03;;;1.30;99.90;;;;;;5077833;28;20236;-71
2022/01/20 02:51:31;;;;;;;14.37;11.07;;;1.40;99.90;;;;;;5077730;28;20258;-71
2022/01/20 02:53:59;;;;;;;14.17;11.57;;;1.30;99.90;;;;;;5077412;28;20200;-71
2022/01/20 02:56:26;;;;;;;14.70;11.47;;;1.30;99.90;;;;;;5077525;28;20193;-71
2022/01/20 02:58:53;;;;;;;13.37;9.97;;;1.30;99.90;;;;;;5075780;28;20278;-71
2022/01/20 03:01:20;;;;;;;11.73;9.87;;;1.30;99.90;;;;;;5075451;28;20197;-70
2022/01/20 03:03:46;;;;;;;12.27;10.47;;;1.30;99.90;;;;;;5076004;28;20205;-71
2022/01/20 03:06:13;;;;;;;13.33;10.80;;;1.20;99.90;;;;;;5075722;28;20205;-71
2022/01/20 03:08:40;;;;;;;12.97;10.07;;;1.20;99.90;;;;;;5075881;28;20649;-70
2022/01/20 03:11:08;;;;;;;14.67;11.27;;;1.10;99.90;;;;;;5076041;28;20653;-71
2022/01/20 03:13:35;;;;;;;13.23;10.87;;;1.10;99.90;;;;;;5077877;28;20228;-71
2022/01/20 03:16:02;;;;;;;14.50;11.23;;;1.20;99.90;;;;;;5077571;28;20242;-70
2022/01/20 03:18:28;;;;;;;14.70;11.47;;;1.20;99.90;;;;;;5076959;28;20223;-71
2022/01/20 03:20:55;;;;;;;15.60;12.00;;;1.20;99.90;;;;;;5078071;28;20223;-71
2022/01/20 03:23:22;;;;;;;14.47;10.67;;;1.20;99.90;;;;;;5078228;28;20205;-71
2022/01/20 03:25:48;;;;;;;15.33;11.60;;;1.20;99.90;;;;;;5078308;28;20220;-71
2022/01/20 03:28:16;;;;;;;16.47;12.07;;;1.20;99.90;;;;;;5077824;28;20230;-71
2022/01/20 03:30:43;;;;;;;17.77;13.03;;;1.20;99.90;;;;;;5078193;28;20229;-71
2022/01/20 03:33:10;;;;;;;17.83;13.47;;;1.20;99.90;;;;;;5077483;28;20200;-71
2022/01/20 03:35:37;;;;;;;19.43;12.33;;;1.20;99.90;;;;;;5077837;28;20738;-71
2022/01/20 03:38:04;;;;;;;22.47;14.23;;;1.20;99.90;;;;;;5078635;28;20193;-71
2022/01/20 03:40:31;;;;;;;23.80;15.17;;;1.20;99.90;;;;;;5084108;28;20200;-71
2022/01/20 03:42:57;;;;;;;21.93;14.83;;;1.20;99.90;;;;;;5082876;28;20239;-71
2022/01/20 03:45:27;;;;;;;23.63;15.13;;;1.20;99.90;;;;;;5082415;28;20201;-71
2022/01/20 03:47:58;;;;;;;20.97;14.03;;;1.20;99.90;;;;;;5081481;28;20204;-71
2022/01/20 03:53:10;;;;;;;22.53;15.70;;;1.20;99.90;;;;;;5081628;28;20257;-71
2022/01/20 03:55:37;;;;;;;20.57;15.13;;;1.20;99.90;;;;;;5081751;28;20223;-71
2022/01/20 03:58:03;;;;;;;23.63;15.33;;;1.30;99.90;;;;;;5082093;28;20227;-71
2022/01/20 04:00:31;;;;;;;20.37;14.13;;;1.30;99.90;;;;;;5082152;28;20660;-71
2022/01/20 04:02:58;;;;;;;22.07;14.67;;;1.30;99.90;;;;;;5082156;28;20197;-71
2022/01/20 04:05:25;;;;;;;23.33;15.03;;;1.30;99.90;;;;;;5081635;28;20197;-71
2022/01/20 04:07:52;;;;;;;22.33;15.53;;;1.30;99.90;;;;;;5082021;28;20201;-71
2022/01/20 04:10:18;;;;;;;22.50;15.47;;;1.40;99.90;;;;;;5081667;28;20200;-70
2022/01/20 04:12:45;;;;;;;22.63;15.33;;;1.40;99.90;;;;;;5081491;28;20648;-70
2022/01/20 04:15:15;;;;;;;22.03;14.80;;;1.30;99.90;;;;;;5080823;28;20332;-70
2022/01/20 04:17:50;;;;;;;24.80;15.03;;;1.30;99.90;;;;;;5080647;28;20287;-70
2022/01/20 04:20:16;;;;;;;20.37;14.57;;;1.30;99.90;;;;;;5079646;28;20281;-70
2022/01/20 04:22:43;;;;;;;21.80;15.63;;;1.30;99.90;;;;;;5080669;28;20201;-70
2022/01/20 04:25:10;;;;;;;22.00;15.00;;;1.30;99.90;;;;;;5081230;28;20197;-71
2022/01/20 04:27:36;;;;;;;23.53;15.70;;;1.30;99.90;;;;;;5080736;28;20204;-71
2022/01/20 04:30:03;;;;;;;20.03;14.33;;;1.40;99.90;;;;;;5081325;28;20244;-71
2022/01/20 04:32:31;;;;;;;20.17;14.63;;;1.40;99.90;;;;;;5082800;28;20197;-71
2022/01/20 04:34:59;;;;;;;20.97;15.57;;;1.40;99.90;;;;;;5082461;28;20197;-71
2022/01/20 04:37:26;;;;;;;22.40;15.73;;;1.40;99.90;;;;;;5082570;28;20204;-71
2022/01/20 04:39:52;;;;;;;20.63;14.83;;;1.40;99.90;;;;;;5081439;28;20364;-71
2022/01/20 04:42:21;;;;;;;20.50;15.00;;;1.40;99.90;;;;;;5081199;28;20201;-71
2022/01/20 04:44:52;;;;;;;19.07;14.33;;;1.50;99.90;;;;;;5081487;28;20208;-71
2022/01/20 04:47:30;;;;;;;22.27;15.37;;;1.50;99.90;;;;;;5082273;28;20283;-70
2022/01/20 04:58:12;;;;;;;22.40;14.83;;;1.50;99.90;;;;;;5081123;28;20204;-71
2022/01/20 05:00:39;;;;;;;22.77;16.63;;;1.50;99.90;;;;;;5081686;28;20204;-70
2022/01/20 05:03:05;;;;;;;23.70;16.80;;;1.50;99.90;;;;;;5081989;28;20595;-71
2022/01/20 05:05:34;;;;;;;21.97;14.80;;;1.60;99.90;;;;;;5082430;28;20228;-71
2022/01/20 05:08:01;;;;;;;24.87;16.87;;;1.60;99.90;;;;;;5082536;28;20268;-71
2022/01/20 05:10:30;;;;;;;25.17;17.13;;;1.60;99.90;;;;;;5082677;28;20201;-71
2022/01/20 05:13:21;;;;;;;27.57;17.70;;;1.60;99.90;;;;;;5082106;28;20284;-71
2022/01/20 05:15:47;;;;;;;26.13;16.37;;;1.60;99.90;;;;;;5079411;28;20212;-71
2022/01/20 05:18:14;;;;;;;25.60;16.87;;;1.50;99.90;;;;;;5079816;28;20205;-71
2022/01/20 05:20:42;;;;;;;25.00;16.50;;;1.50;99.90;;;;;;5079641;28;20255;-71
2022/01/20 05:23:09;;;;;;;23.93;15.23;;;1.60;99.90;;;;;;5079317;28;20204;-71
2022/01/20 05:25:36;;;;;;;25.43;17.40;;;1.60;99.90;;;;;;5079664;28;20255;-71
2022/01/20 05:28:02;;;;;;;28.43;16.20;;;1.50;99.90;;;;;;5079520;28;20269;-72
2022/01/20 05:30:29;;;;;;;22.70;15.90;;;1.50;99.90;;;;;;5079326;28;20236;-71
2022/01/20 05:32:56;;;;;;;25.87;16.00;;;1.60;99.90;;;;;;5079681;28;20219;-72
2022/01/20 05:35:22;;;;;;;23.70;14.87;;;1.60;99.90;;;;;;5079190;28;20602;-72
2022/01/20 05:37:50;;;;;;;22.33;15.17;;;1.60;99.90;;;;;;5079929;28;20202;-72
2022/01/20 05:40:17;;;;;;;23.07;15.23;;;1.60;99.90;;;;;;5079550;28;20221;-72
2022/01/20 05:42:44;;;;;;;23.17;15.00;;;1.60;99.90;;;;;;5080419;28;20254;-72
2022/01/20 05:45:12;;;;;;;22.80;14.37;;;1.60;99.90;;;;;;5079241;28;20330;-72
2022/01/20 05:47:44;;;;;;;23.37;15.37;;;1.60;99.90;;;;;;5079856;28;20197;-72
2022/01/20 05:52:47;;;;;;;20.23;14.13;;;1.60;99.90;;;;;;5559977;22;20210;-71
2022/01/20 05:55:16;;;;;;;20.83;15.17;;;1.60;99.90;;;;;;5078877;28;20193;-71
2022/01/20 05:57:45;;;;;;;22.27;15.13;;;1.60;99.90;;;;;;5080289;28;20197;-71
2022/01/20 06:00:15;;;;;;;22.27;14.23;;;1.60;99.90;;;;;;5079999;28;20236;-70
2022/01/20 06:05:23;;;;;;;22.40;14.87;;;1.60;99.90;;;;;;5078722;28;20195;-72
2022/01/20 06:07:50;;;;;;;24.07;16.10;;;1.60;99.90;;;;;;5079152;28;20607;-71
2022/01/20 06:10:18;;;;;;;21.63;15.60;;;1.60;99.90;;;;;;5079625;28;20258;-72
2022/01/20 06:12:45;;;;;;;21.27;15.23;;;1.60;99.90;;;;;;5078696;28;20266;-72
2022/01/20 06:15:13;;;;;;;25.57;16.80;;;1.60;99.90;;;;;;5079485;28;20205;-72
2022/01/20 06:17:39;;;;;;;22.13;16.20;;;1.60;99.90;;;;;;5078331;28;20201;-71
2022/01/20 06:20:08;;;;;;;29.57;17.90;;;1.60;99.90;;;;;;5079037;28;20684;-71
2022/01/20 06:22:35;;;;;;;22.93;16.23;;;1.60;99.90;;;;;;5079877;28;20205;-71
2022/01/20 06:25:03;;;;;;;21.53;14.73;;;1.60;99.90;;;;;;5081541;28;20242;-71
2022/01/20 06:27:31;;;;;;;19.80;14.07;;;1.70;99.90;;;;;;5081408;28;20208;-71
2022/01/20 06:29:58;;;;;;;22.97;15.70;;;1.70;99.90;;;;;;5080863;28;20326;-71
2022/01/20 06:32:24;;;;;;;25.17;16.73;;;1.60;99.90;;;;;;5082297;28;20193;-71
2022/01/20 06:34:51;;;;;;;25.43;14.77;;;1.70;99.90;;;;;;5081458;28;20250;-72
2022/01/20 06:37:18;;;;;;;23.97;15.60;;;1.70;99.90;;;;;;5081740;28;20230;-71
2022/01/20 06:39:45;;;;;;;21.13;14.93;;;1.60;99.90;;;;;;5081103;28;20233;-72
2022/01/20 06:42:11;;;;;;;24.27;15.77;;;1.70;99.90;;;;;;5080945;28;20197;-71
2022/01/20 06:44:39;;;;;;;24.07;15.17;;;1.60;99.90;;;;;;5081264;28;20197;-71
2022/01/20 06:47:06;;;;;;;23.73;15.43;;;1.70;99.90;;;;;;5080921;28;20197;-71
2022/01/20 06:49:33;;;;;;;25.47;15.80;;;1.60;99.90;;;;;;5080591;28;20205;-71
2022/01/20 06:52:00;;;;;;;23.70;15.63;;;1.60;99.90;;;;;;5080355;28;20278;-71
2022/01/20 06:54:26;;;;;;;22.37;14.33;;;1.60;99.90;;;;;;5079753;28;20197;-71
2022/01/20 06:56:53;;;;;;;22.30;14.93;;;1.60;99.90;;;;;;5079491;28;20274;-70
2022/01/20 06:59:20;;;;;;;20.73;14.77;;;1.60;99.90;;;;;;5079857;28;20220;-71
2022/01/20 07:01:49;;;;;;;26.23;15.40;;;1.60;99.90;;;;;;5079128;28;20200;-71
2022/01/20 07:04:16;;;;;;;25.17;14.30;;;1.60;99.90;;;;;;5079155;28;20201;-71
2022/01/20 07:06:43;;;;;;;24.63;15.70;;;1.70;99.90;;;;;;5078891;28;20200;-71
2022/01/20 07:09:11;;;;;;;22.10;15.00;;;1.60;99.90;;;;;;5079896;28;20201;-70
2022/01/20 07:11:39;;;;;;;21.93;14.13;;;1.70;99.90;;;;;;5079700;28;20656;-70
2022/01/20 07:14:06;;;;;;;21.63;13.80;;;1.60;99.90;;;;;;5079625;28;20207;-71
2022/01/20 07:16:33;;;;;;;20.63;15.07;;;1.60;99.90;;;;;;5079846;28;20205;-71
2022/01/20 07:19:01;;;;;;;23.67;14.23;;;1.60;99.90;;;;;;5079072;28;20656;-71
2022/01/20 07:21:28;;;;;;;20.83;13.80;;;1.50;99.90;;;;;;5079215;28;20197;-71
2022/01/20 07:23:55;;;;;;;16.00;12.60;;;1.50;99.90;;;;;;5078988;28;20228;-71
2022/01/20 07:26:21;;;;;;;20.83;13.20;;;1.50;99.90;;;;;;5079350;28;20193;-71
2022/01/20 07:28:48;;;;;;;20.67;13.20;;;1.60;99.90;;;;;;5079009;28;20201;-71
2022/01/20 07:31:16;;;;;;;17.07;12.10;;;1.60;99.90;;;;;;5079973;28;20197;-71
2022/01/20 07:33:44;;;;;;;18.53;13.33;;;1.60;99.90;;;;;;5079582;28;20201;-72
2022/01/20 07:36:12;;;;;;;16.70;11.80;;;1.60;99.90;;;;;;5079391;28;20288;-72
2022/01/20 07:38:39;;;;;;;19.03;13.30;;;1.70;99.90;;;;;;5079809;28;20197;-71
2022/01/20 07:41:05;;;;;;;17.07;12.93;;;1.70;99.90;;;;;;5079683;28;20285;-71
2022/01/20 07:43:32;;;;;;;17.43;12.07;;;1.70;99.90;;;;;;5079651;28;20192;-71
2022/01/20 07:45:59;;;;;;;13.53;10.90;;;1.70;99.90;;;;;;5078932;28;20232;-71
2022/01/20 07:48:26;;;;;;;16.03;11.90;;;1.80;99.90;;;;;;5079003;28;20201;-71
2022/01/20 07:50:52;;;;;;;16.50;11.77;;;1.80;99.90;;;;;;5079456;28;20228;-72
2022/01/20 07:53:20;;;;;;;18.10;11.43;;;1.80;99.90;;;;;;5078232;28;20289;-70
2022/01/20 07:55:47;;;;;;;16.93;10.73;;;1.70;99.90;;;;;;5079340;28;20292;-71
2022/01/20 07:58:14;;;;;;;17.87;11.80;;;1.70;99.90;;;;;;5079698;28;20229;-71
2022/01/20 08:00:41;;;;;;;15.57;10.40;;;1.80;99.90;;;;;;5078544;28;20251;-71
2022/01/20 08:03:07;;;;;;;15.47;11.10;;;1.70;99.90;;;;;;5079328;28;20197;-71
2022/01/20 08:05:34;;;;;;;15.60;11.00;;;1.80;99.90;;;;;;5079695;28;20201;-71
2022/01/20 08:08:01;;;;;;;18.03;10.53;;;1.80;99.90;;;;;;5077730;28;20200;-71
2022/01/20 08:10:30;;;;;;;17.43;10.77;;;1.70;99.90;;;;;;5077819;28;20197;-71
2022/01/20 08:12:57;;;;;;;18.10;11.03;;;1.80;99.90;;;;;;5078272;28;20231;-71
2022/01/20 08:15:24;;;;;;;15.13;10.67;;;1.80;99.90;;;;;;5078777;28;20262;-71
2022/01/20 08:17:50;;;;;;;16.90;10.40;;;1.80;99.90;;;;;;5078704;28;20204;-71
2022/01/20 08:20:17;;;;;;;18.20;9.30;;;1.80;99.90;;;;;;5079187;28;20221;-71
2022/01/20 08:22:44;;;;;;;17.47;10.40;;;1.80;99.90;;;;;;5080456;28;20223;-71
2022/01/20 08:25:14;;;;;;;16.90;10.10;;;1.80;99.90;;;;;;5080275;28;20197;-72
2022/01/20 08:27:44;;;;;;;16.73;10.57;;;1.90;99.90;;;;;;5083932;28;20228;-72
2022/01/20 08:30:13;;;;;;;20.67;10.03;;;1.80;99.90;;;;;;5084419;28;20262;-71
2022/01/20 08:32:40;;;;;;;19.20;10.33;;;1.80;99.90;;;;;;5083699;28;20197;-71
2022/01/20 08:35:09;;;;;;;16.70;9.57;;;1.80;99.90;;;;;;5083709;28;20197;-71
2022/01/20 08:37:40;;;;;;;12.03;8.27;;;1.80;99.90;;;;;;5083750;28;20201;-72
2022/01/20 08:40:11;;;;;;;14.63;7.87;;;1.80;99.90;;;;;;5083697;28;20221;-72
2022/01/20 08:42:37;;;;;;;21.83;9.20;;;1.90;99.90;;;;;;5084121;28;20197;-72
2022/01/20 08:45:07;;;;;;;12.13;7.43;;;1.90;99.90;;;;;;5084694;28;20219;-72
2022/01/20 08:47:34;;;;;;;17.03;7.93;;;1.90;99.90;;;;;;5083089;28;20623;-72
2022/01/20 08:50:01;;;;;;;12.13;7.77;;;1.90;99.90;;;;;;5084021;28;20250;-72
2022/01/20 08:52:28;;;;;;;15.53;7.27;;;1.90;99.90;;;;;;5083631;28;20239;-72
2022/01/20 08:54:58;;;;;;;12.57;7.40;;;1.90;99.90;;;;;;5083544;28;20656;-73
2022/01/20 08:57:25;;;;;;;13.80;8.50;;;1.90;99.90;;;;;;5083735;28;20208;-72
2022/01/20 08:59:52;;;;;;;14.67;8.03;;;2.00;99.90;;;;;;5085322;28;20221;-72
2022/01/20 09:02:20;;;;;;;15.67;8.10;;;2.10;99.90;;;;;;5085943;28;20224;-73
2022/01/20 09:04:47;;;;;;;18.17;8.23;;;2.20;99.90;;;;;;5085997;28;20292;-72
2022/01/20 09:07:14;;;;;;;12.83;7.53;;;2.30;99.90;;;;;;5085238;28;20197;-73
2022/01/20 09:09:42;;;;;;;14.60;7.80;;;2.30;99.90;;;;;;5084708;28;20208;-72
2022/01/20 09:15:27;;;;;;;13.37;7.63;;;2.20;99.90;;;;;;5085700;28;20201;-72
2022/01/20 09:17:54;;;;;;;11.80;7.17;;;2.30;99.90;;;;;;5084449;28;20200;-74
2022/01/20 09:20:20;;;;;;;11.83;6.60;;;2.20;99.90;;;;;;5083896;28;20228;-74
2022/01/20 09:22:48;;;;;;;18.30;7.57;;;2.30;99.90;;;;;;5083152;28;20683;-72
2022/01/20 09:25:15;;;;;;;15.63;7.37;;;2.30;99.90;;;;;;5082648;28;20243;-73
2022/01/20 09:27:43;;;;;;;10.30;6.80;;;2.50;99.90;;;;;;5084112;28;20221;-73
2022/01/20 09:30:14;;;;;;;12.60;7.10;;;2.70;99.90;;;;;;5084021;28;20211;-73
2022/01/20 09:32:41;;;;;;;12.77;7.50;;;2.70;99.90;;;;;;5083766;28;20672;-73
2022/01/20 09:35:09;;;;;;;12.37;5.73;;;2.60;99.90;;;;;;5083674;28;20201;-74
2022/01/20 09:37:38;;;;;;;11.37;6.80;;;2.60;99.90;;;;;;5083617;28;20718;-72
2022/01/20 09:40:07;;;;;;;13.37;6.77;;;2.60;99.90;;;;;;5086185;28;20217;-72
2022/01/20 09:42:35;;;;;;;10.83;5.90;;;2.80;99.90;;;;;;5084410;28;20200;-72
2022/01/20 09:45:01;;;;;;;11.57;6.53;;;2.70;99.90;;;;;;5083858;28;20235;-73
2022/01/20 09:47:28;;;;;;;11.93;7.17;;;2.80;99.90;;;;;;5085585;28;20196;-73
2022/01/20 09:49:55;;;;;;;12.83;6.87;;;2.70;99.90;;;;;;5084650;28;20216;-73
2022/01/20 09:52:24;;;;;;;11.73;6.30;;;2.70;99.90;;;;;;5083932;28;20287;-73
2022/01/20 09:54:51;;;;;;;11.00;7.00;;;2.80;99.90;;;;;;5081757;28;20200;-72
2022/01/20 09:57:18;;;;;;;11.77;6.23;;;2.90;99.90;;;;;;5082294;28;20201;-75
2022/01/20 09:59:45;;;;;;;14.07;5.57;;;3.00;99.90;;;;;;5083719;28;20609;-73
2022/01/20 10:02:18;;;;;;;12.03;5.70;;;2.90;99.90;;;;;;5083172;28;20212;-75
2022/01/20 10:04:45;;;;;;;8.23;5.30;;;2.90;99.90;;;;;;5084042;28;20206;-73
2022/01/20 10:07:14;;;;;;;10.83;5.07;;;3.10;99.90;;;;;;5083558;28;20265;-73
2022/01/20 10:09:51;;;;;;;8.60;5.17;;;3.30;99.90;;;;;;5081907;28;20198;-73
2022/01/20 10:12:21;;;;;;;9.83;4.57;;;3.20;99.90;;;;;;5064611;28;20200;-74
2022/01/20 10:14:50;;;;;;;9.20;4.67;;;3.00;99.90;;;;;;5083095;28;20201;-74
2022/01/20 10:17:19;;;;;;;9.27;4.90;;;2.90;99.90;;;;;;5083620;28;20200;-74
2022/01/20 10:19:47;;;;;;;7.83;4.60;;;2.90;99.90;;;;;;5082484;28;20197;-74
2022/01/20 10:22:15;;;;;;;9.87;6.00;;;2.70;99.90;;;;;;5083058;28;20225;-74
2022/01/20 10:24:58;;;;;;;8.73;5.30;;;2.70;99.90;;;;;;5084612;28;20193;-73
2022/01/20 10:27:25;;;;;;;9.40;5.93;;;2.60;99.90;;;;;;5083540;28;20196;-72
2022/01/20 10:29:57;;;;;;;9.67;5.90;;;2.60;99.90;;;;;;5083717;28;20242;-73
2022/01/20 10:32:24;;;;;;;7.90;5.67;;;2.60;99.90;;;;;;5083138;28;20262;-73
2022/01/20 10:35:01;;;;;;;11.87;5.80;;;2.70;99.90;;;;;;5083551;28;20223;-74
2022/01/20 10:37:28;;;;;;;14.87;5.77;;;2.60;99.90;;;;;;5083896;28;20197;-73
2022/01/20 10:40:06;;;;;;;9.60;6.37;;;2.50;99.90;;;;;;5084043;28;20657;-73
2022/01/20 10:42:36;;;;;;;10.70;6.37;;;2.50;99.90;;;;;;5082403;28;20224;-73
2022/01/20 10:45:04;;;;;;;11.40;6.20;;;2.60;99.90;;;;;;5083446;28;20208;-74
2022/01/20 10:47:32;;;;;;;9.07;5.57;;;2.70;99.90;;;;;;5082285;28;20726;-73
2022/01/20 10:50:11;;;;;;;10.57;5.60;;;2.70;99.90;;;;;;5081172;28;20218;-73
2022/01/20 10:52:40;;;;;;;9.30;5.37;;;2.60;99.90;;;;;;5082887;28;20253;-74
2022/01/20 10:55:22;;;;;;;12.90;6.20;;;2.60;99.90;;;;;;5082842;28;20664;-73
2022/01/20 10:57:51;;;;;;;10.13;6.10;;;2.60;99.90;;;;;;5083017;28;20209;-74
2022/01/20 11:00:20;;;;;;;10.60;6.03;;;2.70;99.90;;;;;;5081865;28;20197;-73
2022/01/20 11:02:52;;;;;;;10.10;5.87;;;2.70;99.90;;;;;;5082624;28;20220;-73
2022/01/20 11:05:19;;;;;;;11.20;5.40;;;2.70;99.90;;;;;;5082992;28;20197;-72
2022/01/20 11:08:10;;;;;;;9.63;5.93;;;2.50;99.90;;;;;;5081137;28;20296;-73
2022/01/20 11:10:41;;;;;;;9.00;4.70;;;2.40;99.90;;;;;;5077996;28;20209;-73
2022/01/20 11:13:08;;;;;;;11.70;5.63;;;2.30;99.90;;;;;;5080674;28;20231;-72
2022/01/20 11:15:35;;;;;;;10.37;6.10;;;2.20;99.90;;;;;;5081344;28;20223;-73
2022/01/20 11:18:02;;;;;;;9.53;5.87;;;2.20;99.90;;;;;;5082719;28;20205;-71
2022/01/20 11:20:32;;;;;;;12.97;6.20;;;2.20;99.90;;;;;;5081436;28;20599;-72
2022/01/20 11:23:01;;;;;;;10.60;6.27;;;2.20;99.90;;;;;;5081811;28;20207;-71
2022/01/20 11:25:29;;;;;;;11.43;5.93;;;2.20;99.90;;;;;;5080970;28;20204;-73
2022/01/20 11:28:07;;;;;;;7.60;4.90;;;2.90;99.90;;;;;;5080696;28;20207;-72
2022/01/20 11:30:35;;;;;;;9.40;5.20;;;2.90;99.90;;;;;;5081527;28;20200;-71
2022/01/20 11:33:04;;;;;;;8.10;4.90;;;2.60;99.90;;;;;;5081104;28;20203;-71
2022/01/20 11:35:42;;;;;;;4.67;3.67;;;2.60;99.90;;;;;;5081401;28;20238;-70
2022/01/20 11:38:11;;;;;;;9.07;3.87;;;2.80;99.90;;;;;;5080399;28;20201;-71
2022/01/20 11:40:50;;;;;;;10.60;4.30;;;2.90;99.90;;;;;;5080156;28;20220;-70
2022/01/20 11:43:19;;;;;;;1.43;1.30;;;2.60;99.90;;;;;;5079962;28;20204;-71
2022/01/20 11:45:50;;;;;;;2.60;1.37;;;1.60;99.90;;;;;;5080556;28;20203;-72
2022/01/20 11:48:19;;;;;;;3.00;1.20;;;1.20;99.90;;;;;;5080978;28;20201;-71
2022/01/20 11:50:47;;;;;;;3.87;1.53;;;0.90;99.90;;;;;;5081307;28;20601;-72
2022/01/20 11:53:15;;;;;;;4.40;1.87;;;0.70;99.90;;;;;;5080562;28;20240;-71
2022/01/20 11:55:45;;;;;;;6.47;1.80;;;0.40;99.90;;;;;;5081186;28;20249;-71
2022/01/20 11:58:12;;;;;;;5.57;1.60;;;0.40;99.90;;;;;;5081029;28;20202;-72
2022/01/20 12:00:41;;;;;;;6.27;2.10;;;0.30;99.90;;;;;;5083056;28;20228;-71
2022/01/20 12:03:14;;;;;;;4.63;1.83;;;0.30;99.90;;;;;;5085269;28;20201;-72
2022/01/20 12:05:42;;;;;;;6.93;2.47;;;0.40;99.90;;;;;;5083636;28;20197;-71
2022/01/20 12:08:12;;;;;;;3.97;2.03;;;0.30;99.90;;;;;;5084794;28;20284;-72
2022/01/20 12:10:40;;;;;;;6.07;2.13;;;0.30;99.90;;;;;;5083748;28;20197;-72
2022/01/20 12:13:11;;;;;;;2.50;1.40;;;0.40;99.90;;;;;;5083791;28;20238;-72
2022/01/20 12:15:50;;;;;;;6.43;1.90;;;0.30;99.90;;;;;;5084662;28;20227;-73
2022/01/20 12:18:17;;;;;;;4.73;2.00;;;0.40;99.90;;;;;;5084265;28;20219;-72
2022/01/20 12:20:44;;;;;;;3.70;2.10;;;0.40;99.90;;;;;;5082475;28;20208;-72
2022/01/20 12:23:11;;;;;;;8.13;2.50;;;0.70;99.90;;;;;;5084239;28;20201;-73
2022/01/20 12:25:38;;;;;;;12.70;2.63;;;0.90;99.90;;;;;;5086606;28;20270;-72
2022/01/20 12:28:06;;;;;;;6.90;2.47;;;1.40;99.90;;;;;;5087539;28;20208;-73
2022/01/20 12:30:35;;;;;;;8.63;2.80;;;1.20;99.90;;;;;;5088230;28;20231;-72
2022/01/20 12:33:07;;;;;;;4.33;1.90;;;1.40;99.90;;;;;;5085085;28;20197;-72
2022/01/20 12:35:41;;;;;;;6.83;2.20;;;1.50;99.90;;;;;;5085114;28;20251;-72
2022/01/20 12:38:15;;;;;;;6.47;2.03;;;1.50;99.90;;;;;;5084929;28;20201;-72
2022/01/20 12:40:42;;;;;;;9.87;2.53;;;1.40;99.90;;;;;;5083431;28;20196;-72
2022/01/20 12:43:09;;;;;;;8.03;3.47;;;1.40;99.90;;;;;;5083266;28;20275;-72
2022/01/20 12:48:21;;;;;;;8.10;2.60;;;1.40;99.90;;;;;;5083148;28;20257;-72
2022/01/20 12:50:53;;;;;;;5.70;2.03;;;1.50;99.90;;;;;;5082314;28;20619;-71
2022/01/20 12:53:20;;;;;;;7.90;2.70;;;1.50;99.90;;;;;;5084522;28;20229;-72
2022/01/20 12:55:54;;;;;;;6.30;2.27;;;2.20;99.90;;;;;;5083720;28;20193;-73
2022/01/20 12:58:21;;;;;;;5.77;2.13;;;5.70;99.90;;;;;;5084649;28;20623;-73
2022/01/20 13:00:59;;;;;;;7.47;2.27;;;6.50;99.90;;;;;;5085476;28;20603;-73
2022/01/20 13:03:36;;;;;;;8.60;1.90;;;5.30;99.90;;;;;;5085114;28;20197;-73
2022/01/20 13:06:04;;;;;;;4.40;2.03;;;5.90;99.90;;;;;;5084958;28;20196;-73
2022/01/20 13:08:34;;;;;;;7.33;2.30;;;7.10;99.90;;;;;;5086420;28;20201;-73
2022/01/20 13:11:07;;;;;;;6.80;2.60;;;6.00;99.90;;;;;;5086261;28;20228;-73
2022/01/20 13:13:34;;;;;;;6.93;1.93;;;5.80;99.90;;;;;;5086979;28;20193;-74
2022/01/20 13:16:10;;;;;;;4.40;2.13;;;5.80;99.90;;;;;;5084057;28;20197;-74
2022/01/20 13:18:38;;;;;;;6.40;2.10;;;5.40;99.90;;;;;;5085703;28;20261;-74
2022/01/20 13:21:07;;;;;;;7.60;2.60;;;4.90;99.90;;;;;;5086190;28;20227;-74
2022/01/20 13:23:55;;;;;;;5.53;2.57;;;7.40;99.90;;;;;;5087462;28;20368;-74
2022/01/20 13:26:23;;;;;;;4.83;2.40;;;7.80;99.90;;;;;;5086641;28;20255;-74
2022/01/20 13:28:58;;;;;;;6.10;2.40;;;8.60;97.60;;;;;;5087780;28;20266;-74
2022/01/20 13:31:25;;;;;;;3.60;1.67;;;8.80;92.50;;;;;;5087755;28;20200;-74
2022/01/20 13:33:53;;;;;;;5.93;2.30;;;8.30;89.70;;;;;;5086558;28;20217;-74
2022/01/20 13:36:21;;;;;;;7.17;3.20;;;6.20;99.90;;;;;;5086337;28;20201;-74
2022/01/20 13:38:57;;;;;;;6.10;1.93;;;5.70;99.90;;;;;;5086936;28;20662;-74
2022/01/20 13:41:29;;;;;;;8.67;2.93;;;4.90;99.90;;;;;;5086513;28;20679;-74
2022/01/20 13:46:43;;;;;;;4.47;2.33;;;4.50;99.90;;;;;;5086029;28;20199;-74
2022/01/20 13:49:12;;;;;;;5.27;1.80;;;4.70;99.90;;;;;;5084863;28;20250;-74
2022/01/20 13:51:40;;;;;;;5.10;1.97;;;5.60;99.90;;;;;;5085154;28;20254;-74